Time;durP1;ratioP1;P1;durP2;ratioP2;P2;SDS_P1;SDS_P2;PMS_P1;PMS_P2;Temp;Humidity;BMP_temperature;BMP_pressure;BME280_temperature;BME280_humidity;BME280_pressure;Samples;Min_cycle;Max_cycle;Signal;HPM_P1;HPM_P2
2023/09/29 00:00:14;;;;;;;4.00;1.75;;;23.60;75.30;;;;;;6398567;27;20046;-41
2023/09/29 00:03:17;;;;;;;4.18;1.85;;;23.50;75.10;;;;;;6383087;27;20047;-41
2023/09/29 00:06:18;;;;;;;5.57;1.90;;;23.40;75.20;;;;;;6399770;27;20463;-43
2023/09/29 00:09:20;;;;;;;7.25;2.38;;;23.40;75.20;;;;;;6381937;27;20038;-43
2023/09/29 00:12:22;;;;;;;4.40;1.90;;;23.60;75.20;;;;;;6398497;27;20532;-42
2023/09/29 00:15:23;;;;;;;6.95;2.53;;;23.60;75.00;;;;;;6394038;27;20165;-40
2023/09/29 00:18:30;;;;;;;5.35;2.05;;;23.40;75.00;;;;;;6401309;27;20042;-41
2023/09/29 00:21:32;;;;;;;6.38;2.10;;;23.60;74.90;;;;;;6399572;27;20053;-42
2023/09/29 00:24:33;;;;;;;5.80;2.08;;;23.40;74.90;;;;;;6389087;27;20067;-40
2023/09/29 00:27:35;;;;;;;5.63;2.22;;;23.80;75.20;;;;;;6410288;27;20114;-43
2023/09/29 00:30:37;;;;;;;5.80;2.65;;;23.40;74.90;;;;;;6413192;27;20039;-43
2023/09/29 00:33:42;;;;;;;5.35;2.47;;;23.40;74.70;;;;;;6407758;27;20050;-42
2023/09/29 00:36:47;;;;;;;7.72;2.83;;;23.60;73.80;;;;;;6393801;27;20087;-44
2023/09/29 00:39:48;;;;;;;5.90;2.70;;;23.50;74.60;;;;;;6424550;27;20042;-41
2023/09/29 00:42:55;;;;;;;7.47;2.88;;;23.50;74.70;;;;;;6410415;27;20106;-43
2023/09/29 00:46:06;;;;;;;7.75;2.88;;;23.50;74.40;;;;;;6355608;27;20103;-42
2023/09/29 00:49:09;;;;;;;5.85;2.83;;;23.60;74.50;;;;;;6392911;27;20043;-41
2023/09/29 00:52:12;;;;;;;7.90;3.05;;;23.40;74.30;;;;;;6388329;27;20751;-40
2023/09/29 00:55:16;;;;;;;5.97;3.05;;;23.30;74.20;;;;;;6402809;27;20038;-40
2023/09/29 00:58:21;;;;;;;6.70;2.42;;;23.40;74.10;;;;;;6366850;27;20107;-42
2023/09/29 01:01:23;;;;;;;6.97;3.08;;;23.30;74.10;;;;;;6397442;27;20055;-42
2023/09/29 01:04:25;;;;;;;4.63;2.17;;;23.40;73.90;;;;;;6401195;27;20618;-40
2023/09/29 01:07:27;;;;;;;6.75;2.70;;;23.50;74.10;;;;;;6392918;27;20047;-43
2023/09/29 01:10:29;;;;;;;5.75;2.10;;;23.40;73.80;;;;;;6404028;27;20046;-41
2023/09/29 01:13:31;;;;;;;6.80;2.40;;;23.10;73.70;;;;;;6393983;27;20041;-43
2023/09/29 01:16:34;;;;;;;5.35;2.60;;;23.40;73.60;;;;;;6388251;27;20039;-42
2023/09/29 01:19:38;;;;;;;6.72;2.47;;;23.30;73.60;;;;;;6406394;27;20042;-41
2023/09/29 01:22:45;;;;;;;6.68;2.70;;;23.00;73.30;;;;;;6395317;27;20050;-41
2023/09/29 01:25:47;;;;;;;7.30;2.90;;;23.10;73.10;;;;;;6395438;27;20054;-40
2023/09/29 01:28:52;;;;;;;5.15;2.17;;;23.30;73.30;;;;;;6402130;27;20042;-43
2023/09/29 01:31:54;;;;;;;4.68;2.17;;;23.10;73.00;;;;;;6396300;27;20042;-41
2023/09/29 01:34:56;;;;;;;5.85;2.75;;;23.40;73.20;;;;;;6392230;27;20051;-41
2023/09/29 01:37:59;;;;;;;4.75;1.98;;;23.40;73.00;;;;;;6394408;27;20043;-42
2023/09/29 01:41:01;;;;;;;5.78;2.33;;;23.40;73.00;;;;;;6401783;27;20057;-43
2023/09/29 01:44:03;;;;;;;5.82;1.95;;;23.20;72.90;;;;;;6352492;27;20070;-42
2023/09/29 01:47:06;;;;;;;4.45;1.88;;;23.00;72.50;;;;;;6395058;27;20078;-43
2023/09/29 01:50:10;;;;;;;4.38;1.75;;;23.20;72.70;;;;;;6414627;27;20053;-43
2023/09/29 01:53:12;;;;;;;5.00;1.70;;;23.30;72.50;;;;;;6387281;27;20528;-43
2023/09/29 01:56:16;;;;;;;3.67;1.50;;;23.00;72.40;;;;;;6393565;27;20153;-42
2023/09/29 01:59:21;;;;;;;4.32;2.13;;;23.30;72.40;;;;;;6389641;27;20046;-40
2023/09/29 02:02:22;;;;;;;2.80;1.52;;;23.40;72.40;;;;;;6394102;27;20054;-43
2023/09/29 02:05:25;;;;;;;3.58;1.42;;;23.20;72.30;;;;;;6406568;27;20503;-41
2023/09/29 02:08:27;;;;;;;5.55;2.10;;;23.20;72.30;;;;;;6413932;27;20632;-41
2023/09/29 02:11:33;;;;;;;4.45;1.58;;;23.00;72.10;;;;;;6405834;27;20507;-44
2023/09/29 02:14:35;;;;;;;3.67;1.33;;;23.00;70.90;;;;;;6394776;27;20511;-42
2023/09/29 02:17:37;;;;;;;2.83;1.25;;;23.20;72.10;;;;;;6401464;27;20066;-41
2023/09/29 02:20:46;;;;;;;2.20;1.10;;;23.30;72.00;;;;;;6398610;27;20118;-40
2023/09/29 02:23:48;;;;;;;3.85;1.30;;;23.20;70.90;;;;;;6411060;27;20046;-40
2023/09/29 02:26:50;;;;;;;3.17;1.50;;;23.20;72.00;;;;;;6410739;27;20042;-42
2023/09/29 02:29:56;;;;;;;2.10;0.80;;;23.20;71.90;;;;;;6409576;27;20058;-41
2023/09/29 02:32:58;;;;;;;2.58;1.00;;;23.20;71.90;;;;;;6408608;27;20050;-43
2023/09/29 02:36:02;;;;;;;2.45;0.82;;;23.40;71.90;;;;;;6407475;27;20038;-42
2023/09/29 02:39:04;;;;;;;2.25;0.85;;;23.20;71.60;;;;;;6389932;27;20049;-40
2023/09/29 02:42:08;;;;;;;2.83;1.00;;;23.10;71.60;;;;;;6398391;27;20052;-41
2023/09/29 02:45:10;;;;;;;1.40;0.65;;;23.00;72.10;;;;;;6394716;27;20046;-40
2023/09/29 02:48:13;;;;;;;2.33;0.80;;;23.20;71.50;;;;;;6404937;27;20554;-43
2023/09/29 02:51:16;;;;;;;1.92;0.70;;;23.30;71.60;;;;;;6406374;27;20115;-44
2023/09/29 02:54:18;;;;;;;2.03;0.80;;;23.10;71.20;;;;;;6416658;27;20054;-42
2023/09/29 02:57:21;;;;;;;1.42;0.70;;;23.00;71.30;;;;;;6414508;27;20046;-41
2023/09/29 03:00:26;;;;;;;1.13;0.50;;;23.10;71.10;;;;;;6396458;27;20514;-43
2023/09/29 03:03:28;;;;;;;1.48;0.85;;;22.90;71.00;;;;;;6414488;27;20050;-41
2023/09/29 03:06:32;;;;;;;1.52;0.60;;;23.40;71.20;;;;;;6360482;27;20115;-40
2023/09/29 03:09:34;;;;;;;2.15;0.90;;;23.30;71.10;;;;;;6414992;27;20057;-40
2023/09/29 03:12:36;;;;;;;1.63;0.63;;;23.30;71.00;;;;;;6414359;27;20133;-42
2023/09/29 03:15:41;;;;;;;1.33;0.60;;;23.10;70.80;;;;;;6414492;27;20460;-42
2023/09/29 03:18:43;;;;;;;2.25;0.70;;;23.00;70.70;;;;;;6413402;27;20611;-43
2023/09/29 03:21:48;;;;;;;1.45;0.45;;;23.10;70.70;;;;;;6414095;27;20038;-43
2023/09/29 03:24:51;;;;;;;0.60;0.40;;;23.20;70.50;;;;;;6414313;27;20050;-41
2023/09/29 03:27:54;;;;;;;1.33;0.50;;;23.20;70.50;;;;;;6414595;27;20075;-42
2023/09/29 03:30:55;;;;;;;1.58;0.40;;;23.30;70.40;;;;;;6412759;27;20049;-42
2023/09/29 03:33:57;;;;;;;1.05;0.50;;;23.20;70.30;;;;;;6416530;27;20060;-41
2023/09/29 03:36:59;;;;;;;1.30;0.32;;;23.00;70.00;;;;;;6417198;27;20153;-46
2023/09/29 03:40:03;;;;;;;0.95;0.47;;;23.10;70.00;;;;;;6417725;27;20042;-43
2023/09/29 03:43:05;;;;;;;0.50;0.40;;;22.80;69.80;;;;;;6416983;27;20091;-42
2023/09/29 03:46:16;;;;;;;0.85;0.40;;;23.20;69.80;;;;;;6415195;27;20038;-44
2023/09/29 03:49:19;;;;;;;1.10;0.45;;;23.20;69.60;;;;;;6398655;27;20444;-41
2023/09/29 03:52:21;;;;;;;1.08;0.50;;;23.10;69.70;;;;;;6417269;27;20050;-41
2023/09/29 03:55:22;;;;;;;0.70;0.40;;;23.10;69.60;;;;;;6416446;27;20046;-42
2023/09/29 03:58:24;;;;;;;1.83;0.60;;;23.40;69.60;;;;;;6417131;27;20042;-43
2023/09/29 04:01:27;;;;;;;1.00;0.40;;;23.00;69.20;;;;;;6413247;27;20491;-43
2023/09/29 04:04:28;;;;;;;1.13;0.50;;;23.00;69.20;;;;;;6390871;27;20051;-43
2023/09/29 04:07:30;;;;;;;0.82;0.40;;;23.30;69.30;;;;;;6390963;27;20579;-42
2023/09/29 04:10:36;;;;;;;1.30;0.38;;;23.20;69.20;;;;;;6390227;27;20051;-42
2023/09/29 04:13:38;;;;;;;1.10;0.45;;;23.30;69.20;;;;;;6391194;27;20053;-42
2023/09/29 04:16:42;;;;;;;0.60;0.38;;;22.90;68.80;;;;;;6390459;27;20432;-41
2023/09/29 04:19:44;;;;;;;1.33;0.55;;;23.20;68.90;;;;;;6391078;27;20050;-43
2023/09/29 04:22:46;;;;;;;0.88;0.45;;;23.20;68.90;;;;;;6388813;27;20054;-41
2023/09/29 04:25:47;;;;;;;0.82;0.40;;;23.40;68.90;;;;;;6388183;27;20054;-43
2023/09/29 04:28:50;;;;;;;0.73;0.30;;;23.10;68.70;;;;;;6386709;27;20047;-42
2023/09/29 04:31:52;;;;;;;1.30;0.47;;;23.20;68.30;;;;;;6390263;27;20047;-40
2023/09/29 04:34:53;;;;;;;0.70;0.30;;;23.20;69.10;;;;;;6389837;27;20530;-42
2023/09/29 04:37:55;;;;;;;0.52;0.22;;;23.10;68.20;;;;;;6390015;27;20049;-43
2023/09/29 04:40:56;;;;;;;0.57;0.30;;;23.20;68.20;;;;;;6391112;27;20043;-42
2023/09/29 04:44:00;;;;;;;3.13;0.40;;;23.20;68.00;;;;;;6390370;27;20595;-42
2023/09/29 04:47:02;;;;;;;0.50;0.30;;;23.10;67.80;;;;;;6390650;27;20120;-41
2023/09/29 04:50:05;;;;;;;0.20;0.20;;;23.20;67.80;;;;;;6388342;27;20103;-42
2023/09/29 04:53:06;;;;;;;0.55;0.22;;;23.50;67.80;;;;;;6390062;27;20050;-42
2023/09/29 04:56:08;;;;;;;0.70;0.30;;;23.20;67.70;;;;;;6390095;27;20042;-41
2023/09/29 04:59:10;;;;;;;0.38;0.20;;;22.90;67.60;;;;;;6390276;27;20042;-41
2023/09/29 05:02:12;;;;;;;0.30;0.28;;;23.10;67.50;;;;;;6390409;27;20039;-40
2023/09/29 05:05:14;;;;;;;0.75;0.22;;;22.90;67.40;;;;;;6390077;27;20043;-42
2023/09/29 05:08:18;;;;;;;0.80;0.30;;;23.00;67.30;;;;;;6388315;27;20043;-43
2023/09/29 05:11:21;;;;;;;0.75;0.30;;;23.10;67.20;;;;;;6390475;27;20047;-42
2023/09/29 05:14:24;;;;;;;0.30;0.20;;;23.00;67.10;;;;;;6389614;27;20055;-42
2023/09/29 05:17:25;;;;;;;0.50;0.30;;;22.80;66.90;;;;;;6389624;27;20078;-42
2023/09/29 05:20:47;;;;;;;;;;;23.20;67.20;;;;;;6388915;27;20043;-43
2023/09/29 05:23:50;;;;;;;1.00;0.40;;;23.20;67.60;;;;;;6389900;27;19972;-40
2023/09/29 05:26:53;;;;;;;0.52;0.50;;;22.80;67.00;;;;;;6389510;27;20062;-42
2023/09/29 05:29:56;;;;;;;0.60;0.40;;;23.10;67.10;;;;;;6389067;27;20053;-45
2023/09/29 05:33:00;;;;;;;0.57;0.30;;;23.10;67.00;;;;;;6389494;27;20054;-42
2023/09/29 05:36:03;;;;;;;0.63;0.40;;;23.10;67.00;;;;;;6389131;27;20085;-41
2023/09/29 05:39:04;;;;;;;0.65;0.35;;;22.70;66.50;;;;;;6389263;27;20042;-44
2023/09/29 05:42:07;;;;;;;0.47;0.30;;;23.00;66.90;;;;;;6389235;27;20508;-41
2023/09/29 05:45:12;;;;;;;0.32;0.20;;;23.20;66.90;;;;;;6389785;27;20077;-40
2023/09/29 05:48:16;;;;;;;0.45;0.20;;;22.90;66.60;;;;;;6389165;27;20042;-42
2023/09/29 05:51:18;;;;;;;0.77;0.40;;;23.00;66.70;;;;;;6389215;27;20043;-41
2023/09/29 05:54:19;;;;;;;;;;;23.20;67.00;;;;;;6389014;27;20039;-41
2023/09/29 05:57:26;;;;;;;0.82;0.40;;;23.20;67.10;;;;;;6388476;27;20018;-41
2023/09/29 06:00:31;;;;;;;0.95;0.30;;;23.00;67.00;;;;;;6387798;27;20049;-40
2023/09/29 06:03:32;;;;;;;1.42;0.40;;;23.00;66.80;;;;;;6385227;27;20476;-41
2023/09/29 06:06:34;;;;;;;0.70;0.30;;;23.50;67.10;;;;;;6369266;27;20050;-43
2023/09/29 06:09:36;;;;;;;1.10;0.50;;;23.20;67.00;;;;;;6376078;27;20047;-41
2023/09/29 06:12:38;;;;;;;0.85;0.40;;;22.90;66.80;;;;;;6365233;27;20413;-42
2023/09/29 06:15:40;;;;;;;0.85;0.40;;;23.00;66.90;;;;;;6368001;27;20039;-41
2023/09/29 06:18:42;;;;;;;1.30;0.40;;;22.90;66.80;;;;;;6363279;27;20047;-41
2023/09/29 06:21:44;;;;;;;0.73;0.40;;;23.10;66.90;;;;;;6365330;28;20419;-43
2023/09/29 06:24:46;;;;;;;0.52;0.38;;;22.90;66.80;;;;;;6363137;28;20047;-43
2023/09/29 06:27:48;;;;;;;0.57;0.40;;;22.70;66.70;;;;;;6365991;27;20043;-44
2023/09/29 06:30:52;;;;;;;1.17;0.50;;;22.80;66.90;;;;;;6363641;28;20317;-46
2023/09/29 06:33:53;;;;;;;0.77;0.47;;;22.90;66.90;;;;;;6368067;27;20058;-44
2023/09/29 06:36:55;;;;;;;0.85;0.47;;;23.00;67.20;;;;;;6363300;28;20051;-42
2023/09/29 06:40:00;;;;;;;0.80;0.47;;;23.20;67.30;;;;;;6369320;27;20043;-44
2023/09/29 06:43:01;;;;;;;0.85;0.40;;;23.10;66.00;;;;;;6400088;27;20073;-43
2023/09/29 06:46:04;;;;;;;1.23;0.55;;;23.00;67.20;;;;;;6401550;27;20043;-43
2023/09/29 06:49:05;;;;;;;0.73;0.32;;;23.00;67.20;;;;;;6403523;27;20046;-43
2023/09/29 06:52:08;;;;;;;1.55;0.55;;;22.90;67.10;;;;;;6406713;27;20046;-41
2023/09/29 06:55:09;;;;;;;0.88;0.45;;;22.90;67.20;;;;;;6406319;27;20474;-40
2023/09/29 06:58:11;;;;;;;0.73;0.40;;;23.10;67.30;;;;;;6406640;27;20045;-46
2023/09/29 07:01:13;;;;;;;0.90;0.43;;;22.70;67.10;;;;;;6407339;27;20102;-41
2023/09/29 07:04:15;;;;;;;1.02;0.50;;;22.90;67.00;;;;;;6382883;27;20053;-43
2023/09/29 07:07:17;;;;;;;1.02;0.50;;;22.70;67.10;;;;;;6388229;27;20043;-42
2023/09/29 07:10:18;;;;;;;0.70;0.43;;;23.10;67.20;;;;;;6387160;27;20043;-41
2023/09/29 07:13:20;;;;;;;0.90;0.40;;;23.10;67.30;;;;;;6386799;27;20089;-42
2023/09/29 07:16:22;;;;;;;0.80;0.38;;;23.00;67.20;;;;;;6401028;27;20042;-42
2023/09/29 07:19:24;;;;;;;3.17;0.50;;;23.60;67.50;;;;;;6399563;27;20069;-46
2023/09/29 07:22:29;;;;;;;0.40;0.30;;;23.20;67.20;;;;;;6390550;27;20045;-42
2023/09/29 07:25:31;;;;;;;0.88;0.22;;;23.30;67.30;;;;;;6393754;27;20775;-43
2023/09/29 07:28:33;;;;;;;1.13;0.55;;;22.90;67.10;;;;;;6406445;27;20053;-43
2023/09/29 07:31:36;;;;;;;0.70;0.30;;;23.10;67.10;;;;;;6356939;27;20099;-44
2023/09/29 07:34:37;;;;;;;1.02;0.50;;;23.20;67.10;;;;;;6417553;27;20513;-45
2023/09/29 07:37:39;;;;;;;0.88;0.47;;;22.80;67.00;;;;;;6415081;27;20038;-41
2023/09/29 07:40:41;;;;;;;1.20;0.60;;;23.30;67.20;;;;;;6408287;27;20083;-41
2023/09/29 07:43:43;;;;;;;0.47;0.40;;;23.10;67.00;;;;;;6398370;27;20042;-42
2023/09/29 07:46:49;;;;;;;0.50;0.32;;;23.20;67.00;;;;;;6412213;27;20095;-41
2023/09/29 07:49:51;;;;;;;1.27;0.50;;;23.20;66.80;;;;;;6412002;27;20138;-42
2023/09/29 07:52:53;;;;;;;0.63;0.35;;;23.00;66.60;;;;;;6414457;27;20043;-44
2023/09/29 07:55:55;;;;;;;1.55;0.40;;;23.20;66.80;;;;;;6416722;27;20046;-44
2023/09/29 07:58:57;;;;;;;0.77;0.40;;;23.20;66.60;;;;;;6432568;27;20075;-43
2023/09/29 08:02:00;;;;;;;0.40;0.40;;;23.10;66.80;;;;;;6437011;27;20133;-41
2023/09/29 08:05:01;;;;;;;0.43;0.32;;;23.10;66.60;;;;;;6441031;27;20574;-43
2023/09/29 08:08:05;;;;;;;0.80;0.30;;;23.00;66.60;;;;;;6441397;27;20098;-44
2023/09/29 08:11:07;;;;;;;0.30;0.20;;;23.10;66.50;;;;;;6433205;27;20602;-42
2023/09/29 08:14:08;;;;;;;0.70;0.43;;;22.90;66.50;;;;;;6415186;27;20407;-43
2023/09/29 08:17:11;;;;;;;0.50;0.32;;;23.30;66.50;;;;;;6411448;27;20065;-41
2023/09/29 08:20:17;;;;;;;1.25;0.40;;;23.30;66.50;;;;;;6372822;27;20049;-45
2023/09/29 08:23:18;;;;;;;0.40;0.30;;;23.30;66.50;;;;;;6395864;27;20136;-44
2023/09/29 08:26:20;;;;;;;0.63;0.38;;;23.00;66.30;;;;;;6387818;27;20182;-41
2023/09/29 08:29:23;;;;;;;0.85;0.40;;;23.20;66.40;;;;;;6388288;27;20046;-43
2023/09/29 08:32:25;;;;;;;0.43;0.30;;;23.20;66.30;;;;;;6387503;27;20066;-42
2023/09/29 08:35:28;;;;;;;0.70;0.50;;;23.20;66.30;;;;;;6389123;27;20070;-43
2023/09/29 08:38:30;;;;;;;0.60;0.40;;;23.20;66.30;;;;;;6397727;27;20050;-43
2023/09/29 08:41:34;;;;;;;0.55;0.35;;;23.40;66.30;;;;;;6413748;27;20746;-41
2023/09/29 08:44:38;;;;;;;1.05;0.75;;;23.30;66.20;;;;;;6407559;27;20087;-41
2023/09/29 08:47:41;;;;;;;1.35;0.32;;;23.20;66.10;;;;;;6409719;27;20046;-44
2023/09/29 08:50:48;;;;;;;0.52;0.30;;;23.30;66.20;;;;;;6410088;27;20046;-43
2023/09/29 08:53:56;;;;;;;0.60;0.28;;;23.50;66.10;;;;;;6403487;27;20061;-42
2023/09/29 08:56:59;;;;;;;0.40;0.30;;;23.30;65.10;;;;;;6395749;27;20047;-42
2023/09/29 09:00:06;;;;;;;0.40;0.32;;;23.30;66.00;;;;;;6410634;27;20054;-41
2023/09/29 09:03:08;;;;;;;0.80;0.50;;;23.40;65.90;;;;;;6387342;27;20865;-42
2023/09/29 09:06:21;;;;;;;0.80;0.43;;;23.40;66.00;;;;;;6411091;27;20046;-43
2023/09/29 09:09:24;;;;;;;0.60;0.40;;;23.70;66.00;;;;;;6404061;27;20126;-45
2023/09/29 09:12:33;;;;;;;1.02;0.57;;;23.60;65.40;;;;;;6413714;27;20039;-42
2023/09/29 09:15:36;;;;;;;1.08;0.52;;;23.30;65.60;;;;;;6375642;27;20049;-44
2023/09/29 09:18:41;;;;;;;0.63;0.40;;;23.00;65.50;;;;;;6404590;27;20076;-42
2023/09/29 09:21:43;;;;;;;1.40;0.90;;;23.20;65.60;;;;;;6409491;27;20039;-44
2023/09/29 09:24:45;;;;;;;1.13;0.50;;;23.40;65.40;;;;;;6388232;27;20046;-45
2023/09/29 09:27:52;;;;;;;0.88;0.52;;;23.50;65.50;;;;;;6404625;27;20039;-44
2023/09/29 09:31:02;;;;;;;1.58;0.75;;;23.30;65.50;;;;;;6403346;27;20669;-43
2023/09/29 09:34:04;;;;;;;1.27;0.70;;;23.20;65.20;;;;;;6412439;27;20480;-44
2023/09/29 09:37:07;;;;;;;1.00;0.50;;;23.40;65.30;;;;;;6396972;27;20590;-40
2023/09/29 09:40:09;;;;;;;1.85;0.70;;;23.30;65.20;;;;;;6406201;27;20511;-43
2023/09/29 09:43:11;;;;;;;0.77;0.52;;;23.40;65.10;;;;;;6394776;27;20042;-42
2023/09/29 09:46:18;;;;;;;0.98;0.50;;;23.50;65.20;;;;;;6394059;27;20070;-43
2023/09/29 09:49:24;;;;;;;1.38;0.80;;;23.30;64.90;;;;;;6401156;27;20192;-43
2023/09/29 09:52:29;;;;;;;1.55;0.77;;;23.50;64.90;;;;;;6374005;27;20091;-44
2023/09/29 09:55:37;;;;;;;2.28;0.77;;;23.30;64.60;;;;;;6392264;27;20073;-42
2023/09/29 09:58:39;;;;;;;1.15;0.65;;;23.30;64.60;;;;;;6387781;27;20092;-41
2023/09/29 10:01:41;;;;;;;1.73;0.82;;;23.40;64.60;;;;;;6388528;27;20737;-42
2023/09/29 10:04:44;;;;;;;1.20;0.68;;;23.40;64.70;;;;;;6357819;27;20050;-44
2023/09/29 10:07:49;;;;;;;1.08;0.65;;;23.40;64.40;;;;;;6358582;28;20042;-41
2023/09/29 10:10:51;;;;;;;1.17;0.70;;;23.40;64.50;;;;;;6338813;28;20599;-44
2023/09/29 10:14:02;;;;;;;1.95;0.95;;;23.40;64.50;;;;;;6357619;28;20074;-43
2023/09/29 10:17:06;;;;;;;1.60;1.00;;;23.50;64.30;;;;;;6354866;28;20748;-43
2023/09/29 10:20:19;;;;;;;1.83;0.90;;;23.20;64.30;;;;;;6354103;28;20130;-43
2023/09/29 10:23:25;;;;;;;3.17;1.90;;;23.50;64.30;;;;;;6355000;28;20043;-44
2023/09/29 10:26:28;;;;;;;1.90;1.00;;;23.40;64.10;;;;;;6355692;28;20630;-42
2023/09/29 10:29:32;;;;;;;2.00;1.00;;;23.30;64.40;;;;;;6353492;28;20047;-46
2023/09/29 10:32:35;;;;;;;1.63;1.02;;;23.50;64.00;;;;;;6334500;28;20528;-44
2023/09/29 10:35:44;;;;;;;1.60;0.98;;;23.50;64.10;;;;;;6355247;28;20134;-46
2023/09/29 10:38:47;;;;;;;1.42;0.77;;;23.50;63.80;;;;;;6337441;28;20538;-44
2023/09/29 10:41:58;;;;;;;2.90;1.23;;;23.20;63.60;;;;;;6356652;28;20061;-45
2023/09/29 10:44:59;;;;;;;2.08;1.17;;;23.40;63.60;;;;;;6355961;28;20047;-42
2023/09/29 10:48:05;;;;;;;2.15;0.82;;;23.50;63.80;;;;;;6358040;28;20047;-44
2023/09/29 10:51:10;;;;;;;1.73;0.88;;;23.40;63.40;;;;;;6357104;28;20050;-44
2023/09/29 10:54:12;;;;;;;2.10;0.90;;;23.40;63.50;;;;;;6356376;28;20065;-43
2023/09/29 10:57:19;;;;;;;1.58;0.85;;;23.50;63.40;;;;;;6358489;28;20047;-45
2023/09/29 11:00:23;;;;;;;2.10;0.82;;;23.50;63.20;;;;;;6358680;28;20047;-42
2023/09/29 11:03:26;;;;;;;1.65;0.75;;;24.00;63.50;;;;;;6357104;28;20104;-45
2023/09/29 11:06:29;;;;;;;1.67;1.00;;;24.00;63.20;;;;;;6343405;27;20505;-42
2023/09/29 11:09:32;;;;;;;1.70;0.70;;;23.50;62.90;;;;;;6384317;27;20475;-43
2023/09/29 11:12:36;;;;;;;1.35;1.15;;;23.50;62.90;;;;;;6389859;27;20038;-46
2023/09/29 11:15:40;;;;;;;2.20;1.25;;;23.50;62.70;;;;;;6390864;27;20521;-43
2023/09/29 11:18:41;;;;;;;1.20;0.80;;;23.60;62.60;;;;;;6396087;27;20719;-43
2023/09/29 11:21:44;;;;;;;1.67;1.00;;;23.20;62.90;;;;;;6387863;27;20039;-44
2023/09/29 11:24:50;;;;;;;2.60;1.27;;;23.60;62.40;;;;;;6390306;27;20074;-44
2023/09/29 11:27:52;;;;;;;1.38;0.80;;;23.60;62.10;;;;;;6362460;27;20051;-43
2023/09/29 11:30:54;;;;;;;2.63;1.17;;;23.50;62.00;;;;;;6394148;27;20039;-42
2023/09/29 11:33:56;;;;;;;2.45;1.23;;;23.50;61.90;;;;;;6370034;27;20042;-46
2023/09/29 11:36:58;;;;;;;1.90;1.13;;;23.60;61.80;;;;;;6388081;27;20042;-44
2023/09/29 11:40:01;;;;;;;2.60;1.10;;;23.50;61.70;;;;;;6386233;27;20046;-43
2023/09/29 11:43:04;;;;;;;1.65;0.98;;;23.60;61.80;;;;;;6388667;27;20051;-46
2023/09/29 11:46:06;;;;;;;1.95;0.93;;;23.50;61.50;;;;;;6371877;27;20130;-45
2023/09/29 11:49:08;;;;;;;2.63;1.33;;;23.60;61.40;;;;;;6371378;27;20043;-46
2023/09/29 11:52:10;;;;;;;2.20;1.10;;;23.70;61.40;;;;;;6382764;27;20054;-42
2023/09/29 11:55:13;;;;;;;2.83;1.50;;;23.50;61.10;;;;;;6378182;27;20103;-47
2023/09/29 11:58:15;;;;;;;3.03;1.95;;;23.50;60.90;;;;;;6389396;27;20074;-42
2023/09/29 12:01:17;;;;;;;3.17;1.70;;;23.90;60.90;;;;;;6374998;27;20047;-43
2023/09/29 12:04:19;;;;;;;3.22;1.70;;;23.70;60.50;;;;;;6382635;27;20073;-42
2023/09/29 12:07:22;;;;;;;2.92;1.75;;;23.70;60.50;;;;;;6381921;27;20153;-43
2023/09/29 12:10:23;;;;;;;3.05;1.65;;;23.70;60.20;;;;;;6385010;27;20047;-47
2023/09/29 12:13:26;;;;;;;2.95;1.50;;;23.70;60.20;;;;;;6379211;27;20042;-43
2023/09/29 12:16:28;;;;;;;2.85;1.33;;;22.60;59.40;;;;;;6384037;27;20054;-43
2023/09/29 12:19:29;;;;;;;2.53;1.60;;;23.80;60.10;;;;;;6374854;27;20039;-42
2023/09/29 12:22:31;;;;;;;3.03;1.50;;;23.70;60.00;;;;;;6375675;27;20062;-42
2023/09/29 12:25:34;;;;;;;3.47;1.85;;;23.70;59.80;;;;;;6374603;27;20038;-41
2023/09/29 12:28:35;;;;;;;2.75;1.50;;;23.70;59.70;;;;;;6368056;27;20515;-41
2023/09/29 12:31:37;;;;;;;2.90;1.45;;;23.70;59.60;;;;;;6378807;27;20046;-41
2023/09/29 12:34:39;;;;;;;2.05;1.40;;;23.80;59.60;;;;;;6386172;27;20523;-43
2023/09/29 12:37:42;;;;;;;2.55;1.08;;;24.00;59.70;;;;;;6387908;27;20046;-41
2023/09/29 12:40:44;;;;;;;3.22;1.33;;;23.90;59.50;;;;;;6356743;27;20850;-44
2023/09/29 12:43:46;;;;;;;2.35;1.45;;;24.00;59.50;;;;;;6376796;27;20039;-41
2023/09/29 12:46:50;;;;;;;2.90;1.30;;;23.90;59.40;;;;;;6380781;27;20043;-41
2023/09/29 12:49:54;;;;;;;2.45;1.25;;;23.70;59.20;;;;;;6383692;27;20043;-42
2023/09/29 12:52:56;;;;;;;2.58;1.55;;;23.80;59.20;;;;;;6389172;27;20050;-42
2023/09/29 12:55:58;;;;;;;3.13;1.40;;;23.90;59.10;;;;;;6384476;27;20424;-45
2023/09/29 12:59:00;;;;;;;2.10;1.27;;;23.70;59.00;;;;;;6387011;27;20027;-41
2023/09/29 13:02:04;;;;;;;3.80;1.40;;;23.90;59.00;;;;;;6384985;27;20047;-44
2023/09/29 13:05:11;;;;;;;2.15;1.40;;;23.80;58.90;;;;;;6374038;27;20047;-43
2023/09/29 13:08:13;;;;;;;1.88;1.15;;;23.90;58.70;;;;;;6376791;27;20039;-45
2023/09/29 13:11:15;;;;;;;2.15;1.00;;;23.90;58.70;;;;;;6376791;27;20045;-42
2023/09/29 13:14:17;;;;;;;2.17;1.30;;;24.00;58.60;;;;;;6379078;27;20073;-44
2023/09/29 13:17:21;;;;;;;2.10;1.38;;;23.90;58.50;;;;;;6384685;27;20051;-41
2023/09/29 13:20:22;;;;;;;2.90;1.45;;;23.90;58.50;;;;;;6387510;27;20047;-44
2023/09/29 13:23:24;;;;;;;2.83;1.58;;;24.00;58.50;;;;;;6376754;27;20042;-41
2023/09/29 13:26:29;;;;;;;2.08;1.23;;;23.90;58.30;;;;;;6373939;27;20053;-41
2023/09/29 13:29:31;;;;;;;1.75;1.13;;;24.00;57.80;;;;;;6369048;27;20038;-42
2023/09/29 13:32:32;;;;;;;1.67;1.20;;;23.90;58.10;;;;;;6373692;27;20051;-46
2023/09/29 13:35:34;;;;;;;2.65;1.80;;;24.00;58.10;;;;;;6364705;27;20047;-42
2023/09/29 13:38:37;;;;;;;2.35;1.30;;;24.00;58.00;;;;;;6370906;27;20053;-43
2023/09/29 13:41:39;;;;;;;2.08;1.20;;;24.20;57.90;;;;;;6384306;27;20073;-43
2023/09/29 13:44:41;;;;;;;2.55;1.38;;;24.10;57.90;;;;;;6384763;27;20042;-43
2023/09/29 13:47:43;;;;;;;2.15;1.05;;;24.20;57.90;;;;;;6387898;27;20054;-44
2023/09/29 13:50:45;;;;;;;3.15;1.40;;;24.20;57.80;;;;;;6385889;27;20122;-42
2023/09/29 13:53:47;;;;;;;2.42;1.23;;;24.00;57.40;;;;;;6383780;27;20155;-42
2023/09/29 13:56:50;;;;;;;2.17;1.00;;;24.10;57.30;;;;;;6373815;27;20039;-43
2023/09/29 13:59:52;;;;;;;3.90;1.20;;;24.20;57.30;;;;;;6385856;27;20043;-43
2023/09/29 14:02:54;;;;;;;2.08;0.90;;;24.10;57.10;;;;;;6366377;27;20047;-44
2023/09/29 14:05:55;;;;;;;2.55;1.00;;;24.40;57.90;;;;;;6359332;28;20047;-43
2023/09/29 14:08:57;;;;;;;2.22;1.30;;;24.20;57.10;;;;;;6359794;27;20147;-41
2023/09/29 14:12:17;;;;;;;2.25;0.98;;;24.20;57.00;;;;;;6369007;27;20129;-43
2023/09/29 14:15:19;;;;;;;2.90;1.13;;;24.20;56.90;;;;;;6363779;27;20076;-44
2023/09/29 14:18:22;;;;;;;2.00;1.08;;;24.20;56.80;;;;;;6384266;27;20129;-42
2023/09/29 14:21:26;;;;;;;3.03;1.10;;;24.30;56.70;;;;;;6378820;27;20051;-42
2023/09/29 14:24:28;;;;;;;1.60;0.70;;;24.40;56.70;;;;;;6370140;27;20043;-46
2023/09/29 14:27:31;;;;;;;2.25;1.08;;;24.20;56.50;;;;;;6370246;27;20043;-43
2023/09/29 14:30:37;;;;;;;1.95;1.20;;;24.20;56.40;;;;;;6361814;27;20043;-45
2023/09/29 14:33:39;;;;;;;1.45;0.70;;;24.20;56.20;;;;;;6361247;27;20051;-42
2023/09/29 14:36:40;;;;;;;1.77;1.02;;;24.20;56.10;;;;;;6373461;27;20053;-42
2023/09/29 14:39:43;;;;;;;1.88;0.80;;;24.20;56.00;;;;;;6360872;27;20893;-42
2023/09/29 14:42:45;;;;;;;1.73;1.10;;;24.20;56.60;;;;;;6343341;28;20073;-44
2023/09/29 14:45:47;;;;;;;1.30;0.80;;;24.20;55.90;;;;;;6362573;27;20059;-41
2023/09/29 14:48:50;;;;;;;2.35;1.25;;;24.50;55.90;;;;;;6380611;27;20859;-44
2023/09/29 14:51:52;;;;;;;1.73;0.90;;;24.40;55.80;;;;;;6390332;27;20452;-41
2023/09/29 14:54:54;;;;;;;3.08;1.25;;;24.20;55.60;;;;;;6382098;27;20055;-44
2023/09/29 14:57:55;;;;;;;1.88;0.98;;;24.30;55.50;;;;;;6389587;27;20049;-46
2023/09/29 15:00:57;;;;;;;1.38;0.95;;;24.20;55.40;;;;;;6388773;27;20150;-43
2023/09/29 15:03:59;;;;;;;1.55;0.80;;;24.30;55.30;;;;;;6387624;27;20632;-46
2023/09/29 15:07:01;;;;;;;1.65;0.90;;;24.30;55.30;;;;;;6387062;27;20053;-42
2023/09/29 15:10:05;;;;;;;2.30;1.00;;;24.50;55.30;;;;;;6388752;27;20047;-42
2023/09/29 15:13:07;;;;;;;1.65;0.88;;;24.30;55.00;;;;;;6388428;27;20042;-43
2023/09/29 15:16:11;;;;;;;1.40;1.00;;;24.70;55.20;;;;;;6374973;27;20752;-41
2023/09/29 15:19:15;;;;;;;2.47;0.90;;;24.20;55.40;;;;;;6367254;27;20544;-40
2023/09/29 15:22:19;;;;;;;1.92;0.90;;;24.40;54.80;;;;;;6386014;27;20486;-44
2023/09/29 15:25:22;;;;;;;1.80;1.02;;;24.80;55.10;;;;;;6362913;27;20039;-44
2023/09/29 15:28:26;;;;;;;1.58;0.80;;;24.40;54.80;;;;;;6377830;27;20074;-40
2023/09/29 15:31:30;;;;;;;1.60;0.98;;;24.40;54.70;;;;;;6377954;27;20043;-40
2023/09/29 15:34:34;;;;;;;1.05;0.63;;;24.30;54.50;;;;;;6375193;27;20042;-41
2023/09/29 15:37:38;;;;;;;1.27;0.88;;;24.70;54.70;;;;;;6401116;27;20070;-44
2023/09/29 15:40:42;;;;;;;1.38;0.90;;;24.60;54.40;;;;;;6406917;27;20047;-44
2023/09/29 15:43:43;;;;;;;1.58;1.00;;;24.20;54.30;;;;;;6386734;27;20043;-45
2023/09/29 15:46:45;;;;;;;1.52;0.82;;;24.40;54.40;;;;;;6366722;27;20142;-43
2023/09/29 15:49:47;;;;;;;1.20;0.60;;;24.30;54.20;;;;;;6356961;28;20050;-44
2023/09/29 15:52:49;;;;;;;1.48;0.70;;;24.20;54.00;;;;;;6361336;27;20069;-46